Flight Track Log - Related Links

Times and Time Zones

All times are in EST time to prevent confusion due to time zone crossing. See the SWA2524 flight status page for this flight to view local times or setup timezone preferences in your user account.

Time Position Orientation Groundspeed Altitude Reporting Facility
EST Latitude Longitude Course Direction KTS MPH feet Rate Location/Type
Wed 08:56:28 AM 44.9167 -93.2667 280° West 182 209 4,700  Level Minneapolis TRACON
Wed 08:56:59 AM 44.9194 -93.2894 280° West 180 207 6,100 1,500 Climbing Minneapolis Center
Wed 08:58:00 AM 44.8967 -93.3814 251° West 239 275 7,000 439 Climbing Minneapolis Center
Wed 08:59:02 AM 44.8364 -93.4392 214° Southwest 263 303 7,000 1,694 Level Minneapolis Center
Wed 09:00:04 AM 44.7647 -93.4736 199° South 276 318 10,500 2,903 Climbing Minneapolis Center
Wed 09:01:06 AM 44.6814 -93.5106 197° South 321 369 13,000 3,073 Climbing Minneapolis Center
Wed 09:02:07 AM 44.5797 -93.5561 198° South 385 443 16,800 3,659 Climbing Minneapolis Center
Wed 09:03:09 AM 44.4528 -93.6108 197° South 398 458 20,500 3,242 Climbing Minneapolis Center
Wed 09:04:11 AM 44.3489 -93.6836 207° Southwest 417 480 23,500 2,683 Climbing Minneapolis Center
Wed 09:05:12 AM 44.2481 -93.7647 210° Southwest 418 481 26,000 2,683 Climbing Minneapolis Center
Wed 09:06:14 AM 44.1456 -93.8475 210° Southwest 425 489 29,000 1,935 Climbing Minneapolis Center
Wed 09:07:16 AM 44.0442 -93.9292 210° Southwest 423 487 30,000 484 Climbing Minneapolis Center
Wed 09:08:18 AM 43.9439 -94.0075 209° Southwest 416 479 30,000 1,268 Level Minneapolis Center
Wed 09:09:19 AM 43.8447 -94.0867 210° Southwest 412 474 32,600 2,390 Climbing Minneapolis Center
Wed 09:10:21 AM 43.7272 -94.1797 210° Southwest 408 470 34,900 1,887 Climbing Minneapolis Center
Wed 09:11:23 AM 43.6139 -94.2283 197° South 423 487 36,500 1,610 Climbing Minneapolis Center
Wed 09:12:24 AM 43.4847 -94.2358 182° South 455 524 38,200 1,659 Climbing Minneapolis Center
Wed 09:13:26 AM 43.3594 -94.2428 182° South 462 532 39,900 871 Climbing Minneapolis Center
Wed 09:14:28 AM 43.2386 -94.2542 184° South 453 521 40,000 48 Climbing Minneapolis Center
Wed 09:15:30 AM 43.0917 -94.2625 182° South 444 511 40,000  Level Minneapolis Center
Wed 09:16:31 AM 42.9681 -94.2711 183° South 443 510 40,000  Level Minneapolis Center
Wed 09:17:33 AM 42.8469 -94.2792 183° South 441 507 40,000  Level Minneapolis Center
Wed 09:18:35 AM 42.7269 -94.2869 183° South 437 503 40,000  Level Minneapolis Center
Wed 09:19:37 AM 42.6075 -94.2972 184° South 436 502 40,000  Level Minneapolis Center
Wed 09:20:38 AM 42.4986 -94.3431 197° South 413 475 40,000  Level Minneapolis Center
Wed 09:21:40 AM 42.3900 -94.3878 197° South 412 474 40,000  Level Minneapolis Center
Wed 09:22:42 AM 42.2589 -94.4419 197° South 410 472 40,000  Level Minneapolis Center
Wed 09:23:44 AM 42.1489 -94.4886 197° South 412 474 40,000  Level Minneapolis Center
Wed 09:24:46 AM 42.0400 -94.5361 198° South 412 474 40,000  Level Minneapolis Center
Wed 09:25:47 AM 41.9306 -94.5814 197° South 411 473 40,000  Level Minneapolis Center
Wed 09:26:49 AM 41.8231 -94.6261 197° South 406 467 40,000  Level Minneapolis Center
Wed 09:27:51 AM 41.7142 -94.6711 197° South 406 467 40,000  Level Minneapolis Center
Wed 09:28:53 AM 41.6092 -94.7150 197° South 398 458 40,000  Level Minneapolis Center
Wed 09:29:54 AM 41.4817 -94.7689 198° South 399 459 40,000 -49 Level Minneapolis Center
Wed 09:30:56 AM 41.3753 -94.8117 197° South 398 458 39,900 -532 Descending Minneapolis Center
Wed 09:31:58 AM 41.2697 -94.8550 197° South 396 456 38,900 -927 Descending Minneapolis Center
Wed 09:32:59 AM 41.1611 -94.8983 197° South 399 459 38,000 -927 Descending Minneapolis Center
Wed 09:34:01 AM 41.0528 -94.9436 197° South 403 464 37,000 -919 Descending Minneapolis Center
Wed 09:35:03 AM 40.9472 -94.9867 197° South 401 461 36,100 -927 Descending Minneapolis Center
Wed 09:36:04 AM 40.8428 -95.0297 197° South 397 457 35,100 -537 Descending Minneapolis Center
Wed 09:37:06 AM 40.7367 -95.0719 197° South 396 456 35,000 -774 Descending Minneapolis Center
Wed 09:38:08 AM 40.6317 -95.1131 197° South 394 453 33,500 -2,806 Descending Minneapolis Center
Wed 09:39:10 AM 40.5072 -95.1644 197° South 390 449 29,200 -3,463 Descending Minneapolis Center
Wed 09:40:11 AM 40.4031 -95.2053 197° South 390 449 26,400 -2,780 Descending Minneapolis Center
Wed 09:41:13 AM 40.2992 -95.2456 196° South 388 447 23,500 -1,887 Descending Minneapolis Center
Wed 09:42:15 AM 40.1983 -95.2864 197° South 383 441 22,500 -976 Descending Minneapolis Center
Wed 09:43:16 AM 40.0981 -95.3264 197° South 378 435 21,500 -1,017 Descending Minneapolis Center
Wed 09:44:13 AM 40.0022 -95.3636 197° South 383 441 20,500 -992 Descending Kansas City Center
Wed 09:45:17 AM 39.9061 -95.4006 196° South 376 433 19,500 -1,268 Descending Kansas City Center
Wed 09:46:16 AM 39.7881 -95.3586 165° South 426 490 17,900 -2,311 Descending Kansas City Center
Wed 09:47:19 AM 39.6972 -95.2639 141° Southeast 434 499 14,800 -2,710 Descending Kansas City Center
Wed 09:48:20 AM 39.5956 -95.1533 140° Southeast 424 488 12,300 -1,415 Descending Kansas City Center
Wed 09:49:22 AM 39.5186 -95.0758 142° Southeast 372 428 11,900 -1,024 Descending Kansas City Center
Wed 09:50:23 AM 39.4506 -95.0056 141° Southeast 329 379 10,200 -1,645 Descending Kansas City Center
Wed 09:51:26 AM 39.3739 -94.9258 141° Southeast 316 364 8,500 -1,645 Descending Kansas City Center
Wed 09:52:27 AM 39.3131 -94.8644 142° Southeast 291 335 6,800 -1,785 Descending Kansas City Center
Wed 09:53:27 AM 39.2447 -94.8442 167° South 222 255 4,900 -1,597 Descending Kansas City Center
Wed 09:54:31 AM 39.2253 -94.7900 115° Southeast 189 217 3,500 -1,190 Descending Kansas City Center
Wed 09:55:33 AM 39.2294 -94.7481 83° East 127 146 2,400 -934 Descending Kansas City Center
Wed 09:56:33 AM 39.2631 -94.7378 13° North 111 128 1,600 -683 Descending Kansas City Center
Wed 09:57:36 AM 39.2914 -94.7292 13° North 110 127 1,000 -571 Descending Kansas City Center

Login

Don't have an account? Register now (free) for customized features, flight alerts, and more!